createdAt,value
2023-05-17T00:02:37.594Z,14.37
2023-05-17T00:05:04.732Z,13.50
2023-05-17T00:07:31.404Z,13.20
2023-05-17T00:09:57.864Z,12.03
2023-05-17T00:12:24.374Z,12.70
2023-05-17T00:14:50.973Z,12.23
2023-05-17T00:17:17.475Z,12.33
2023-05-17T00:19:44.059Z,11.43
2023-05-17T00:22:10.565Z,11.30
2023-05-17T00:24:37.102Z,11.20
2023-05-17T00:27:03.800Z,11.90
2023-05-17T00:29:30.409Z,11.17
2023-05-17T00:31:56.883Z,11.63
2023-05-17T00:34:23.378Z,11.53
2023-05-17T00:36:49.878Z,12.80
2023-05-17T00:39:16.351Z,13.00
2023-05-17T00:41:42.868Z,12.70
2023-05-17T00:44:09.410Z,12.13
2023-05-17T00:46:36.023Z,13.00
2023-05-17T00:49:03.509Z,12.90
2023-05-17T00:51:30.070Z,13.10
2023-05-17T00:53:56.700Z,12.43
2023-05-17T00:56:23.972Z,12.63
2023-05-17T00:58:50.756Z,13.63
2023-05-17T01:01:17.232Z,14.20
2023-05-17T01:03:43.967Z,15.30
2023-05-17T01:06:10.917Z,14.43
2023-05-17T01:08:37.545Z,13.87
2023-05-17T01:11:16.285Z,14.10
2023-05-17T01:14:01.498Z,13.70
2023-05-17T01:16:35.943Z,14.37
2023-05-17T01:19:13.769Z,14.70
2023-05-17T01:22:08.258Z,15.03
2023-05-17T01:24:51.809Z,15.07
2023-05-17T01:27:18.967Z,15.03
2023-05-17T01:29:45.918Z,15.13
2023-05-17T01:32:13.860Z,15.00
2023-05-17T01:34:41.435Z,16.77
2023-05-17T01:37:07.915Z,15.20
2023-05-17T01:39:34.524Z,16.80
2023-05-17T01:42:23.282Z,16.53
2023-05-17T01:45:12.769Z,16.37
2023-05-17T01:47:58.617Z,16.37
2023-05-17T01:50:28.005Z,17.00
2023-05-17T01:52:59.475Z,16.40
2023-05-17T01:55:42.259Z,17.83
2023-05-17T01:58:11.021Z,17.27
2023-05-17T02:00:39.557Z,18.40
2023-05-17T02:03:06.432Z,17.93
2023-05-17T02:05:33.006Z,18.47
2023-05-17T02:07:59.522Z,17.17
2023-05-17T02:10:26.006Z,18.00
2023-05-17T02:12:52.498Z,18.10
2023-05-17T02:15:19.077Z,18.77
2023-05-17T02:17:45.894Z,17.97
2023-05-17T02:20:12.965Z,19.03
2023-05-17T02:22:39.520Z,19.20
2023-05-17T02:25:07.180Z,20.57
2023-05-17T02:27:33.837Z,20.90
2023-05-17T02:30:01.874Z,20.57
2023-05-17T02:32:29.170Z,22.70
2023-05-17T02:34:56.215Z,24.63
2023-05-17T02:37:22.698Z,24.97
2023-05-17T02:39:49.183Z,23.63
2023-05-17T02:42:15.711Z,26.63
2023-05-17T02:44:42.316Z,24.93
2023-05-17T02:47:08.942Z,26.73
2023-05-17T02:49:35.655Z,26.27
2023-05-17T02:52:02.386Z,26.70
2023-05-17T02:54:29.122Z,26.70
2023-05-17T02:56:55.859Z,27.33
2023-05-17T02:59:22.395Z,27.13
2023-05-17T03:01:50.165Z,28.70
2023-05-17T03:04:16.873Z,29.10
2023-05-17T03:06:43.384Z,27.30
2023-05-17T03:09:09.890Z,27.83
2023-05-17T03:11:36.780Z,27.90
2023-05-17T03:14:03.684Z,26.40
2023-05-17T03:16:30.177Z,26.53
2023-05-17T03:18:56.991Z,26.27
2023-05-17T03:21:23.516Z,26.47
2023-05-17T03:23:50.040Z,27.03
2023-05-17T03:26:16.804Z,25.77
2023-05-17T03:28:43.294Z,27.53
2023-05-17T03:31:09.847Z,24.87
2023-05-17T03:33:36.486Z,24.77
2023-05-17T03:36:03.328Z,25.43
2023-05-17T03:38:29.945Z,24.63
2023-05-17T03:40:56.796Z,25.93
2023-05-17T03:43:23.295Z,25.90
2023-05-17T03:45:49.837Z,26.07
2023-05-17T03:48:16.456Z,25.97
2023-05-17T03:50:43.143Z,24.83
2023-05-17T03:53:10.055Z,24.67
2023-05-17T03:55:36.650Z,24.17
2023-05-17T03:58:03.232Z,22.20
2023-05-17T04:00:29.882Z,21.70
2023-05-17T04:02:56.632Z,20.80
2023-05-17T04:05:23.148Z,20.77
2023-05-17T04:07:49.824Z,19.33
2023-05-17T04:10:16.423Z,21.10
2023-05-17T04:12:42.910Z,20.27
2023-05-17T04:15:09.944Z,21.17
2023-05-17T04:17:36.505Z,21.30
2023-05-17T04:20:06.420Z,20.90
2023-05-17T04:22:33.546Z,20.80
2023-05-17T04:25:00.370Z,22.93
2023-05-17T04:27:27.001Z,22.67
2023-05-17T04:29:53.565Z,21.83
2023-05-17T04:32:20.105Z,21.67
2023-05-17T04:34:46.664Z,19.07
2023-05-17T04:37:13.223Z,18.77
2023-05-17T04:39:40.111Z,16.17
2023-05-17T04:42:06.671Z,16.50
2023-05-17T04:44:33.273Z,16.83
2023-05-17T04:46:59.831Z,16.50
2023-05-17T04:49:26.729Z,17.53
2023-05-17T04:51:53.253Z,15.27
2023-05-17T04:54:19.771Z,15.33
2023-05-17T04:56:46.258Z,15.10
2023-05-17T04:59:12.779Z,16.30
2023-05-17T05:01:39.396Z,15.33
2023-05-17T05:04:07.338Z,15.43
2023-05-17T05:06:34.585Z,15.77
2023-05-17T05:09:01.652Z,16.37
2023-05-17T05:11:28.177Z,17.10
2023-05-17T05:13:54.762Z,15.83
2023-05-17T05:16:21.282Z,15.20
2023-05-17T05:18:48.088Z,16.17
2023-05-17T05:21:14.793Z,14.47
2023-05-17T05:23:41.287Z,14.27
2023-05-17T05:26:08.336Z,13.53
2023-05-17T05:28:34.861Z,13.77
2023-05-17T05:31:01.492Z,13.53
2023-05-17T05:33:28.203Z,13.10
2023-05-17T05:35:57.224Z,13.83
2023-05-17T05:38:23.792Z,12.03
2023-05-17T05:40:50.302Z,12.03
2023-05-17T05:43:16.824Z,12.03
2023-05-17T05:45:46.762Z,11.77
2023-05-17T05:48:14.117Z,11.53
2023-05-17T05:50:44.365Z,11.33
2023-05-17T05:53:19.404Z,12.50
2023-05-17T05:55:46.496Z,12.90
2023-05-17T05:58:12.984Z,12.63
2023-05-17T06:00:39.507Z,12.43
2023-05-17T06:03:06.430Z,13.77
2023-05-17T06:05:33.393Z,14.10
2023-05-17T06:08:00.124Z,14.20
2023-05-17T06:10:26.810Z,14.70
2023-05-17T06:12:53.572Z,16.97
2023-05-17T06:15:20.123Z,16.67
2023-05-17T06:17:46.721Z,14.80
2023-05-17T06:20:13.432Z,13.00
2023-05-17T06:22:40.053Z,12.23
2023-05-17T06:25:06.736Z,11.87
2023-05-17T06:27:33.788Z,11.63
2023-05-17T06:30:00.794Z,11.70
2023-05-17T06:32:27.593Z,11.97
2023-05-17T06:34:55.583Z,11.73
2023-05-17T06:37:22.103Z,11.70
2023-05-17T06:39:55.540Z,11.00
2023-05-17T06:42:26.475Z,11.47
2023-05-17T06:44:53.033Z,11.90
2023-05-17T06:47:19.592Z,11.77
2023-05-17T06:49:46.111Z,13.17
2023-05-17T06:52:12.664Z,13.17
2023-05-17T06:54:39.172Z,12.73
2023-05-17T06:57:05.908Z,11.97
2023-05-17T06:59:32.551Z,13.00
2023-05-17T07:02:01.847Z,11.60
2023-05-17T07:04:28.526Z,12.07
2023-05-17T07:06:55.279Z,12.57
2023-05-17T07:09:21.941Z,11.20
2023-05-17T07:11:48.519Z,11.90
2023-05-17T07:14:15.069Z,11.87
2023-05-17T07:16:41.702Z,11.47
2023-05-17T07:19:08.587Z,12.67
2023-05-17T07:21:35.806Z,13.07
2023-05-17T07:24:02.632Z,11.53
2023-05-17T07:26:29.142Z,11.73
2023-05-17T07:28:55.764Z,11.87
2023-05-17T07:31:22.258Z,11.87
2023-05-17T07:33:48.817Z,12.40
2023-05-17T07:36:15.437Z,12.23
2023-05-17T07:38:42.019Z,12.10
2023-05-17T07:41:14.049Z,12.40
2023-05-17T07:43:40.642Z,12.90
2023-05-17T07:46:07.136Z,10.43
2023-05-17T07:48:34.008Z,10.73
2023-05-17T07:51:00.694Z,10.87
2023-05-17T07:53:27.174Z,9.70
2023-05-17T07:55:53.762Z,9.43
2023-05-17T07:58:20.378Z,9.50
2023-05-17T08:00:46.937Z,9.47
2023-05-17T08:03:15.689Z,9.10
2023-05-17T08:05:43.671Z,8.57
2023-05-17T08:08:10.438Z,8.27
2023-05-17T08:10:37.895Z,8.43
2023-05-17T08:13:06.142Z,8.00
2023-05-17T08:15:32.702Z,8.23
2023-05-17T08:18:00.370Z,7.57
2023-05-17T08:20:28.017Z,8.50
2023-05-17T08:22:55.046Z,7.90
2023-05-17T08:25:21.747Z,8.33
2023-05-17T08:27:48.463Z,7.03
2023-05-17T08:30:28.120Z,7.63
2023-05-17T08:32:56.591Z,7.30
2023-05-17T08:35:24.017Z,7.30
2023-05-17T08:37:52.138Z,6.03
2023-05-17T08:40:21.227Z,6.77
2023-05-17T08:42:48.452Z,6.73
2023-05-17T08:45:15.157Z,6.93
2023-05-17T08:47:43.449Z,7.40
2023-05-17T08:50:11.232Z,7.27
2023-05-17T08:52:38.176Z,7.87
2023-05-17T08:55:06.186Z,7.07
2023-05-17T08:57:34.217Z,6.77
2023-05-17T09:00:01.031Z,7.53
2023-05-17T09:02:29.808Z,8.30
2023-05-17T09:04:57.435Z,8.20
2023-05-17T09:07:24.456Z,9.27
2023-05-17T09:09:53.304Z,9.40
2023-05-17T09:12:21.879Z,9.20
2023-05-17T09:14:49.825Z,10.10
2023-05-17T09:17:21.080Z,10.10
2023-05-17T09:19:48.862Z,10.27
2023-05-17T09:22:18.852Z,11.47
2023-05-17T09:24:45.461Z,9.93
2023-05-17T09:27:17.105Z,9.90
2023-05-17T09:29:45.420Z,11.33
2023-05-17T09:32:16.586Z,11.00
2023-05-17T09:34:45.688Z,10.73
2023-05-17T09:37:14.230Z,11.80
2023-05-17T09:39:41.161Z,11.43
2023-05-17T09:42:08.758Z,10.73
2023-05-17T09:44:57.355Z,12.80
2023-05-17T09:47:28.487Z,12.20
2023-05-17T09:50:00.579Z,11.70
2023-05-17T09:52:37.029Z,12.37
2023-05-17T09:55:03.897Z,10.83
2023-05-17T09:57:37.963Z,11.20
2023-05-17T10:00:13.236Z,11.53
2023-05-17T10:02:43.375Z,11.30
2023-05-17T10:05:12.383Z,11.20
2023-05-17T10:07:39.528Z,11.57
2023-05-17T10:10:06.883Z,11.80
2023-05-17T10:12:38.458Z,11.77
2023-05-17T10:15:05.503Z,12.50
2023-05-17T10:17:32.333Z,11.57
2023-05-17T10:19:59.374Z,11.40
2023-05-17T10:22:27.709Z,10.50
2023-05-17T10:24:56.084Z,10.90
2023-05-17T10:27:23.218Z,11.07
2023-05-17T10:29:51.492Z,10.97
2023-05-17T10:32:21.485Z,11.43
2023-05-17T10:34:58.141Z,11.57
2023-05-17T10:37:33.698Z,10.13
2023-05-17T10:40:00.685Z,9.93
2023-05-17T10:42:27.921Z,10.40
2023-05-17T10:44:54.610Z,9.40
2023-05-17T10:47:21.205Z,9.60
2023-05-17T10:49:48.220Z,9.10
2023-05-17T10:52:19.330Z,8.97
2023-05-17T10:54:48.548Z,9.07
2023-05-17T10:57:39.030Z,9.00
2023-05-17T11:00:20.270Z,8.77
2023-05-17T11:02:48.876Z,8.70
2023-05-17T11:05:27.124Z,9.10
2023-05-17T11:08:17.321Z,8.47
2023-05-17T11:11:09.624Z,7.33
2023-05-17T11:13:54.888Z,7.00
2023-05-17T11:16:24.077Z,6.00
2023-05-17T11:18:52.657Z,5.80
2023-05-17T11:21:21.328Z,5.40
2023-05-17T11:23:49.477Z,5.30
2023-05-17T11:26:21.807Z,5.47
2023-05-17T11:28:49.227Z,5.00
2023-05-17T11:31:15.877Z,5.33
2023-05-17T11:33:46.156Z,5.23
2023-05-17T11:36:19.462Z,5.83
2023-05-17T11:38:55.248Z,5.33
2023-05-17T11:41:28.286Z,5.83
2023-05-17T11:43:55.455Z,5.30
2023-05-17T11:46:23.916Z,5.60
2023-05-17T11:48:53.590Z,6.17
2023-05-17T11:51:23.875Z,5.60
2023-05-17T11:53:55.154Z,6.23
2023-05-17T11:56:29.189Z,6.23
2023-05-17T11:59:04.093Z,6.30
2023-05-17T12:01:46.006Z,6.53
2023-05-17T12:04:12.733Z,5.73
2023-05-17T12:06:39.632Z,5.93
2023-05-17T12:09:11.307Z,6.27
2023-05-17T12:11:40.937Z,6.20
2023-05-17T12:14:07.559Z,5.80
2023-05-17T12:16:36.349Z,6.77
2023-05-17T12:19:03.238Z,6.90
2023-05-17T12:21:29.992Z,6.63
2023-05-17T12:23:56.508Z,6.87
2023-05-17T12:26:23.795Z,7.40
2023-05-17T12:28:54.101Z,6.80
2023-05-17T12:31:25.492Z,7.57
2023-05-17T12:33:52.524Z,7.03
2023-05-17T12:36:19.431Z,7.67
2023-05-17T12:38:47.148Z,8.03
2023-05-17T12:41:16.053Z,7.13
2023-05-17T12:43:45.192Z,7.97
2023-05-17T12:46:18.905Z,8.20
2023-05-17T12:48:46.021Z,8.47
2023-05-17T12:51:14.343Z,7.70
2023-05-17T12:53:48.871Z,7.77
2023-05-17T12:56:21.497Z,7.90
2023-05-17T12:59:08.095Z,7.17
2023-05-17T13:01:35.957Z,7.50
2023-05-17T13:04:03.763Z,7.57
2023-05-17T13:06:52.510Z,7.87
2023-05-17T13:09:20.989Z,8.30
2023-05-17T13:11:55.052Z,8.23
2023-05-17T13:14:34.806Z,8.70
2023-05-17T13:17:02.567Z,8.10
2023-05-17T13:19:29.206Z,8.77
2023-05-17T13:21:55.936Z,8.20
2023-05-17T13:24:22.498Z,9.50
2023-05-17T13:26:49.074Z,7.97
2023-05-17T13:29:16.350Z,9.73
2023-05-17T13:31:44.194Z,9.47
2023-05-17T13:34:11.163Z,8.40
2023-05-17T13:36:38.140Z,9.90
2023-05-17T13:39:04.685Z,9.83
2023-05-17T13:41:31.166Z,9.07
2023-05-17T13:43:57.725Z,9.60
2023-05-17T13:46:24.212Z,9.03
2023-05-17T13:48:50.836Z,9.50
2023-05-17T13:51:18.030Z,8.80
2023-05-17T13:53:44.707Z,8.77
2023-05-17T13:56:11.266Z,8.70
2023-05-17T13:58:37.787Z,8.27
2023-05-17T14:01:04.584Z,8.20
2023-05-17T14:03:31.226Z,9.00
2023-05-17T14:05:57.793Z,7.57
2023-05-17T14:08:24.389Z,7.33
2023-05-17T14:10:50.895Z,7.17
2023-05-17T14:13:17.562Z,8.03
2023-05-17T14:15:44.449Z,7.83
2023-05-17T14:18:11.082Z,8.37
2023-05-17T14:20:37.748Z,8.23
2023-05-17T14:23:04.388Z,7.73
2023-05-17T14:25:30.868Z,7.10
2023-05-17T14:27:57.519Z,6.87
2023-05-17T14:30:24.534Z,7.40
2023-05-17T14:32:51.164Z,6.73
2023-05-17T14:35:17.793Z,6.63
2023-05-17T14:37:44.580Z,7.13
2023-05-17T14:40:12.166Z,6.57
2023-05-17T14:42:39.286Z,6.00
2023-05-17T14:45:06.740Z,5.80
2023-05-17T14:47:35.906Z,4.73
2023-05-17T14:50:03.725Z,4.83
2023-05-17T14:52:30.548Z,4.80
2023-05-17T14:54:57.094Z,5.30
2023-05-17T14:57:23.760Z,4.63
2023-05-17T14:59:50.397Z,4.77
2023-05-17T15:02:16.849Z,4.70
2023-05-17T15:04:43.472Z,5.07
2023-05-17T15:07:10.166Z,4.90
2023-05-17T15:09:41.518Z,4.97
2023-05-17T15:12:13.932Z,4.93
2023-05-17T15:14:40.863Z,4.80
2023-05-17T15:17:07.432Z,4.77
2023-05-17T15:19:34.132Z,4.57
2023-05-17T15:22:01.673Z,5.77
2023-05-17T15:24:29.132Z,5.00
2023-05-17T15:26:56.044Z,5.27
2023-05-17T15:29:22.573Z,5.07
2023-05-17T15:31:49.118Z,5.30
2023-05-17T15:34:15.774Z,5.70
2023-05-17T15:36:42.382Z,5.87
2023-05-17T15:39:08.957Z,5.30
2023-05-17T15:41:37.290Z,6.07
2023-05-17T15:44:05.396Z,5.77
2023-05-17T15:46:32.254Z,5.53
2023-05-17T15:48:58.877Z,6.20
2023-05-17T15:51:25.586Z,5.27
2023-05-17T15:53:52.058Z,5.50
2023-05-17T15:56:20.967Z,5.50
2023-05-17T15:58:47.732Z,6.03
2023-05-17T16:01:14.711Z,5.70
2023-05-17T16:03:41.552Z,6.23
2023-05-17T16:06:08.696Z,6.40
2023-05-17T16:08:35.222Z,6.53
2023-05-17T16:11:02.782Z,6.50
2023-05-17T16:13:29.392Z,7.40
2023-05-17T16:15:57.064Z,6.10
2023-05-17T16:18:23.676Z,6.37
2023-05-17T16:20:57.927Z,6.23
2023-05-17T16:23:24.552Z,6.77
2023-05-17T16:25:51.482Z,6.23
2023-05-17T16:28:21.641Z,5.67
2023-05-17T16:30:49.614Z,5.13
2023-05-17T16:33:16.307Z,6.77
2023-05-17T16:35:43.710Z,6.53
2023-05-17T16:38:10.592Z,5.37
2023-05-17T16:40:38.691Z,5.20
2023-05-17T16:43:05.544Z,5.23
2023-05-17T16:45:32.053Z,4.77
2023-05-17T16:47:59.238Z,4.87
2023-05-17T16:50:26.091Z,4.97
2023-05-17T16:52:52.617Z,4.87
2023-05-17T16:55:19.103Z,5.13
2023-05-17T16:57:45.770Z,5.37
2023-05-17T17:00:12.804Z,6.23
2023-05-17T17:02:39.365Z,6.80
2023-05-17T17:05:06.338Z,7.10
2023-05-17T17:07:32.919Z,6.80
2023-05-17T17:09:59.410Z,6.93
2023-05-17T17:12:26.330Z,8.00
2023-05-17T17:14:53.687Z,6.13
2023-05-17T17:17:20.524Z,6.27
2023-05-17T17:19:47.423Z,5.57
2023-05-17T17:22:14.815Z,6.53
2023-05-17T17:24:41.825Z,6.83
2023-05-17T17:27:08.375Z,5.23
2023-05-17T17:29:35.298Z,5.73
2023-05-17T17:32:02.377Z,5.67
2023-05-17T17:34:29.079Z,5.47
2023-05-17T17:36:55.799Z,5.60
2023-05-17T17:39:22.370Z,4.90
2023-05-17T17:41:48.937Z,5.50
2023-05-17T17:44:15.431Z,5.93
2023-05-17T17:46:42.435Z,5.70
2023-05-17T17:49:08.993Z,6.00
2023-05-17T17:51:35.502Z,6.00
2023-05-17T17:54:04.858Z,6.27
2023-05-17T17:56:32.789Z,6.50
2023-05-17T17:58:59.848Z,5.87
2023-05-17T18:01:26.862Z,4.90
2023-05-17T18:03:53.564Z,4.60
2023-05-17T18:06:20.326Z,5.03
2023-05-17T18:08:46.931Z,5.93
2023-05-17T18:11:13.604Z,5.47
2023-05-17T18:13:40.180Z,5.20
2023-05-17T18:16:06.901Z,5.63
2023-05-17T18:18:33.911Z,5.73
2023-05-17T18:21:00.459Z,6.00
2023-05-17T18:23:27.029Z,5.63
2023-05-17T18:25:53.588Z,5.47
2023-05-17T18:28:30.000Z,5.27
2023-05-17T18:31:04.588Z,5.40
2023-05-17T18:33:31.559Z,5.50
2023-05-17T18:35:58.174Z,6.13
2023-05-17T18:38:24.639Z,5.17
2023-05-17T18:40:51.199Z,5.87
2023-05-17T18:43:17.714Z,5.40
2023-05-17T18:45:44.244Z,5.30
2023-05-17T18:48:10.844Z,5.87
2023-05-17T18:50:37.357Z,5.30
2023-05-17T18:53:03.908Z,5.93
2023-05-17T18:55:30.421Z,5.90
2023-05-17T18:57:56.912Z,6.93
2023-05-17T19:00:23.436Z,5.87
2023-05-17T19:02:49.990Z,6.00
2023-05-17T19:05:16.568Z,6.03
2023-05-17T19:07:43.077Z,5.70
2023-05-17T19:10:10.201Z,5.93
2023-05-17T19:12:36.857Z,5.30
2023-05-17T19:15:04.117Z,5.47
2023-05-17T19:17:30.818Z,6.50
2023-05-17T19:19:57.645Z,7.07
2023-05-17T19:22:24.127Z,7.50
2023-05-17T19:24:50.740Z,7.33
2023-05-17T19:27:19.605Z,6.63
2023-05-17T19:29:47.066Z,6.70
2023-05-17T19:32:13.617Z,7.07
2023-05-17T19:34:40.211Z,7.53
2023-05-17T19:37:06.796Z,6.80
2023-05-17T19:39:33.362Z,6.87
2023-05-17T19:41:59.969Z,5.93
2023-05-17T19:44:26.551Z,6.70
2023-05-17T19:46:53.231Z,6.60
2023-05-17T19:49:19.785Z,5.60
2023-05-17T19:51:46.678Z,5.70
2023-05-17T19:54:13.185Z,5.67
2023-05-17T19:56:39.694Z,5.23
2023-05-17T19:59:06.340Z,5.50
2023-05-17T20:01:32.977Z,6.37
2023-05-17T20:03:59.616Z,5.80
2023-05-17T20:06:26.443Z,6.50
2023-05-17T20:08:52.984Z,6.07
2023-05-17T20:11:19.523Z,5.83
2023-05-17T20:13:46.098Z,6.07
2023-05-17T20:16:13.207Z,5.90
2023-05-17T20:18:44.005Z,5.93
2023-05-17T20:21:12.797Z,6.47
2023-05-17T20:23:39.514Z,5.90
2023-05-17T20:26:06.208Z,5.60
2023-05-17T20:28:32.755Z,5.83
2023-05-17T20:30:59.342Z,5.93
2023-05-17T20:33:26.453Z,5.50
2023-05-17T20:35:53.792Z,6.20
2023-05-17T20:38:20.693Z,6.07
2023-05-17T20:40:47.407Z,5.80
2023-05-17T20:43:14.518Z,5.97
2023-05-17T20:45:41.182Z,6.50
2023-05-17T20:48:08.062Z,5.37
2023-05-17T20:50:34.632Z,6.10
2023-05-17T20:53:01.202Z,5.93
2023-05-17T20:55:27.717Z,6.73
2023-05-17T20:57:54.426Z,5.80
2023-05-17T21:00:21.316Z,6.03
2023-05-17T21:02:48.007Z,6.30
2023-05-17T21:05:14.867Z,6.10
2023-05-17T21:07:41.414Z,6.10
2023-05-17T21:10:08.796Z,6.60
2023-05-17T21:12:36.000Z,6.70
2023-05-17T21:15:15.947Z,6.03
2023-05-17T21:17:43.943Z,5.73
2023-05-17T21:20:11.199Z,6.70
2023-05-17T21:22:37.899Z,6.07
2023-05-17T21:25:05.076Z,6.93
2023-05-17T21:27:33.717Z,6.73
2023-05-17T21:30:00.829Z,5.90
2023-05-17T21:32:27.395Z,5.97
2023-05-17T21:34:54.558Z,5.60
2023-05-17T21:37:21.218Z,4.97
2023-05-17T21:39:47.732Z,5.03
2023-05-17T21:42:14.269Z,4.17
2023-05-17T21:44:40.836Z,4.67
2023-05-17T21:47:07.502Z,4.07
2023-05-17T21:49:34.207Z,4.30
2023-05-17T21:52:00.837Z,4.00
2023-05-17T21:54:27.353Z,3.80
2023-05-17T21:56:53.878Z,3.10
2023-05-17T21:59:20.584Z,3.70
2023-05-17T22:01:47.241Z,3.97
2023-05-17T22:04:13.983Z,3.60
2023-05-17T22:06:40.658Z,3.73
2023-05-17T22:09:07.158Z,4.03
2023-05-17T22:11:38.176Z,2.83
2023-05-17T22:14:08.018Z,3.07
2023-05-17T22:16:36.130Z,2.73
2023-05-17T22:19:03.890Z,3.03
2023-05-17T22:21:31.886Z,3.13
2023-05-17T22:23:59.151Z,2.97
2023-05-17T22:26:27.640Z,3.00
2023-05-17T22:28:54.589Z,2.80
2023-05-17T22:31:21.202Z,3.27
2023-05-17T22:33:47.836Z,3.00
2023-05-17T22:36:14.609Z,3.20
2023-05-17T22:38:42.635Z,3.00
2023-05-17T22:41:10.084Z,3.23
2023-05-17T22:43:37.152Z,2.80
2023-05-17T22:46:04.217Z,3.43
2023-05-17T22:48:32.000Z,3.13
2023-05-17T22:51:00.867Z,2.40
2023-05-17T22:53:29.079Z,2.90
2023-05-17T22:55:55.707Z,2.43
2023-05-17T22:58:25.139Z,2.40
2023-05-17T23:00:52.254Z,3.00
2023-05-17T23:03:19.525Z,2.30
2023-05-17T23:05:46.067Z,2.73
2023-05-17T23:08:15.301Z,2.70
2023-05-17T23:10:45.515Z,2.30
2023-05-17T23:13:12.717Z,2.57
2023-05-17T23:15:40.605Z,2.20
2023-05-17T23:18:07.284Z,2.43
2023-05-17T23:20:34.866Z,2.20
2023-05-17T23:23:01.793Z,2.30
2023-05-17T23:25:29.288Z,1.97
2023-05-17T23:27:57.961Z,2.27
2023-05-17T23:30:24.739Z,3.20
2023-05-17T23:32:52.208Z,2.00
2023-05-17T23:35:18.896Z,2.60
2023-05-17T23:37:45.519Z,2.03
2023-05-17T23:40:12.791Z,1.80
2023-05-17T23:42:40.409Z,2.40
2023-05-17T23:45:09.816Z,2.00
2023-05-17T23:47:40.443Z,1.80
2023-05-17T23:50:09.285Z,1.90
2023-05-17T23:52:38.850Z,2.03
2023-05-17T23:55:08.929Z,2.43
2023-05-17T23:57:35.520Z,2.30
